sensor_id;sensor_type;location;lat;lon;timestamp;P1;durP1;ratioP1;P2;durP2;ratioP2
19905;SDS011;10115;50.906;4.438;2024-02-04T00:00:27;17.20;;;16.20;;
19905;SDS011;10115;50.906;4.438;2024-02-04T00:02:52;19.10;;;17.90;;
19905;SDS011;10115;50.906;4.438;2024-02-04T00:05:18;17.50;;;16.47;;
19905;SDS011;10115;50.906;4.438;2024-02-04T00:07:44;17.13;;;16.23;;
19905;SDS011;10115;50.906;4.438;2024-02-04T00:10:10;14.73;;;14.03;;
19905;SDS011;10115;50.906;4.438;2024-02-04T00:12:36;22.10;;;20.57;;
19905;SDS011;10115;50.906;4.438;2024-02-04T00:15:02;17.90;;;16.77;;
19905;SDS011;10115;50.906;4.438;2024-02-04T00:17:31;24.00;;;22.47;;
19905;SDS011;10115;50.906;4.438;2024-02-04T00:19:59;22.13;;;20.20;;
19905;SDS011;10115;50.906;4.438;2024-02-04T00:22:26;25.60;;;24.23;;
19905;SDS011;10115;50.906;4.438;2024-02-04T00:24:53;25.90;;;24.47;;
19905;SDS011;10115;50.906;4.438;2024-02-04T00:27:20;19.43;;;18.43;;
19905;SDS011;10115;50.906;4.438;2024-02-04T00:29:46;26.50;;;24.73;;
19905;SDS011;10115;50.906;4.438;2024-02-04T00:32:11;24.50;;;23.37;;
19905;SDS011;10115;50.906;4.438;2024-02-04T00:34:37;21.03;;;19.87;;
19905;SDS011;10115;50.906;4.438;2024-02-04T00:37:03;22.07;;;20.20;;
19905;SDS011;10115;50.906;4.438;2024-02-04T00:39:28;18.20;;;16.87;;
19905;SDS011;10115;50.906;4.438;2024-02-04T00:41:54;19.77;;;18.47;;
19905;SDS011;10115;50.906;4.438;2024-02-04T00:44:20;23.37;;;21.83;;
19905;SDS011;10115;50.906;4.438;2024-02-04T00:46:46;18.30;;;17.40;;
19905;SDS011;10115;50.906;4.438;2024-02-04T00:49:11;20.37;;;19.20;;
19905;SDS011;10115;50.906;4.438;2024-02-04T00:51:37;20.60;;;19.50;;
19905;SDS011;10115;50.906;4.438;2024-02-04T00:54:02;18.37;;;17.40;;
19905;SDS011;10115;50.906;4.438;2024-02-04T00:56:28;22.17;;;20.80;;
19905;SDS011;10115;50.906;4.438;2024-02-04T00:58:54;25.67;;;24.13;;
19905;SDS011;10115;50.906;4.438;2024-02-04T01:01:20;16.23;;;15.33;;
19905;SDS011;10115;50.906;4.438;2024-02-04T01:03:46;17.83;;;16.80;;
19905;SDS011;10115;50.906;4.438;2024-02-04T01:06:12;17.20;;;16.20;;
19905;SDS011;10115;50.906;4.438;2024-02-04T01:08:38;27.03;;;24.97;;
19905;SDS011;10115;50.906;4.438;2024-02-04T01:11:07;24.80;;;23.60;;
19905;SDS011;10115;50.906;4.438;2024-02-04T01:13:32;24.83;;;23.53;;
19905;SDS011;10115;50.906;4.438;2024-02-04T01:15:58;25.47;;;23.63;;
19905;SDS011;10115;50.906;4.438;2024-02-04T01:18:23;22.43;;;21.00;;
19905;SDS011;10115;50.906;4.438;2024-02-04T01:20:49;17.30;;;16.40;;
19905;SDS011;10115;50.906;4.438;2024-02-04T01:23:15;25.37;;;23.83;;
19905;SDS011;10115;50.906;4.438;2024-02-04T01:25:42;25.20;;;23.90;;
19905;SDS011;10115;50.906;4.438;2024-02-04T01:28:08;25.13;;;23.50;;
19905;SDS011;10115;50.906;4.438;2024-02-04T01:30:34;19.33;;;18.23;;
19905;SDS011;10115;50.906;4.438;2024-02-04T01:33:00;17.17;;;16.03;;
19905;SDS011;10115;50.906;4.438;2024-02-04T01:35:26;18.73;;;17.73;;
19905;SDS011;10115;50.906;4.438;2024-02-04T01:37:51;17.93;;;16.93;;
19905;SDS011;10115;50.906;4.438;2024-02-04T01:40:17;24.77;;;23.30;;
19905;SDS011;10115;50.906;4.438;2024-02-04T01:42:43;22.97;;;21.73;;
19905;SDS011;10115;50.906;4.438;2024-02-04T01:45:08;18.37;;;17.27;;
19905;SDS011;10115;50.906;4.438;2024-02-04T01:47:34;18.23;;;16.63;;
19905;SDS011;10115;50.906;4.438;2024-02-04T01:50:00;17.77;;;16.73;;
19905;SDS011;10115;50.906;4.438;2024-02-04T01:52:28;21.30;;;20.20;;
19905;SDS011;10115;50.906;4.438;2024-02-04T01:54:55;17.30;;;16.20;;
19905;SDS011;10115;50.906;4.438;2024-02-04T01:57:21;20.67;;;19.17;;
19905;SDS011;10115;50.906;4.438;2024-02-04T01:59:48;16.87;;;15.90;;
19905;SDS011;10115;50.906;4.438;2024-02-04T02:02:16;17.50;;;15.73;;
19905;SDS011;10115;50.906;4.438;2024-02-04T02:04:43;16.57;;;15.20;;
19905;SDS011;10115;50.906;4.438;2024-02-04T02:07:09;17.70;;;16.33;;
19905;SDS011;10115;50.906;4.438;2024-02-04T02:09:35;16.03;;;15.03;;
19905;SDS011;10115;50.906;4.438;2024-02-04T02:12:11;18.23;;;17.03;;
19905;SDS011;10115;50.906;4.438;2024-02-04T02:14:39;17.00;;;15.70;;
19905;SDS011;10115;50.906;4.438;2024-02-04T02:17:12;15.93;;;15.03;;
19905;SDS011;10115;50.906;4.438;2024-02-04T02:22:32;17.13;;;15.63;;
19905;SDS011;10115;50.906;4.438;2024-02-04T02:25:08;18.23;;;17.30;;
19905;SDS011;10115;50.906;4.438;2024-02-04T02:27:45;16.67;;;15.37;;
19905;SDS011;10115;50.906;4.438;2024-02-04T02:30:15;22.00;;;20.20;;
19905;SDS011;10115;50.906;4.438;2024-02-04T02:32:42;18.63;;;16.97;;
19905;SDS011;10115;50.906;4.438;2024-02-04T02:35:14;18.93;;;17.60;;
19905;SDS011;10115;50.906;4.438;2024-02-04T02:37:43;14.10;;;13.40;;
19905;SDS011;10115;50.906;4.438;2024-02-04T02:40:39;17.97;;;16.87;;
19905;SDS011;10115;50.906;4.438;2024-02-04T02:43:14;15.80;;;14.90;;
19905;SDS011;10115;50.906;4.438;2024-02-04T02:45:41;20.70;;;18.43;;
19905;SDS011;10115;50.906;4.438;2024-02-04T02:48:08;17.33;;;16.03;;
19905;SDS011;10115;50.906;4.438;2024-02-04T02:50:38;18.73;;;17.13;;
19905;SDS011;10115;50.906;4.438;2024-02-04T02:53:04;18.53;;;17.00;;
19905;SDS011;10115;50.906;4.438;2024-02-04T02:55:30;20.23;;;17.93;;
19905;SDS011;10115;50.906;4.438;2024-02-04T02:57:55;17.50;;;15.37;;
19905;SDS011;10115;50.906;4.438;2024-02-04T03:00:21;13.13;;;12.37;;
19905;SDS011;10115;50.906;4.438;2024-02-04T03:02:47;17.43;;;13.47;;
19905;SDS011;10115;50.906;4.438;2024-02-04T03:05:15;15.70;;;14.30;;
19905;SDS011;10115;50.906;4.438;2024-02-04T03:07:41;14.00;;;12.97;;
19905;SDS011;10115;50.906;4.438;2024-02-04T03:10:07;13.70;;;13.00;;
19905;SDS011;10115;50.906;4.438;2024-02-04T03:12:33;14.83;;;13.43;;
19905;SDS011;10115;50.906;4.438;2024-02-04T03:14:59;15.83;;;14.13;;
19905;SDS011;10115;50.906;4.438;2024-02-04T03:17:25;18.00;;;15.83;;
19905;SDS011;10115;50.906;4.438;2024-02-04T03:19:50;17.07;;;15.37;;
19905;SDS011;10115;50.906;4.438;2024-02-04T03:22:22;15.73;;;14.47;;
19905;SDS011;10115;50.906;4.438;2024-02-04T03:24:48;17.90;;;16.43;;
19905;SDS011;10115;50.906;4.438;2024-02-04T03:27:15;16.33;;;14.93;;
19905;SDS011;10115;50.906;4.438;2024-02-04T03:29:44;26.20;;;24.47;;
19905;SDS011;10115;50.906;4.438;2024-02-04T03:32:12;27.53;;;26.07;;
19905;SDS011;10115;50.906;4.438;2024-02-04T03:34:40;27.83;;;26.17;;
19905;SDS011;10115;50.906;4.438;2024-02-04T03:37:06;29.57;;;27.33;;
19905;SDS011;10115;50.906;4.438;2024-02-04T03:39:32;26.03;;;24.47;;
19905;SDS011;10115;50.906;4.438;2024-02-04T03:41:58;28.90;;;26.73;;
19905;SDS011;10115;50.906;4.438;2024-02-04T03:44:23;27.30;;;19.30;;
19905;SDS011;10115;50.906;4.438;2024-02-04T03:46:49;26.80;;;25.00;;
19905;SDS011;10115;50.906;4.438;2024-02-04T03:49:15;15.63;;;14.83;;
19905;SDS011;10115;50.906;4.438;2024-02-04T03:51:41;28.60;;;26.90;;
19905;SDS011;10115;50.906;4.438;2024-02-04T03:54:07;17.90;;;16.63;;
19905;SDS011;10115;50.906;4.438;2024-02-04T03:56:33;23.27;;;21.37;;
19905;SDS011;10115;50.906;4.438;2024-02-04T03:58:58;20.17;;;18.30;;
19905;SDS011;10115;50.906;4.438;2024-02-04T04:01:24;17.23;;;16.50;;
19905;SDS011;10115;50.906;4.438;2024-02-04T04:03:50;20.70;;;19.50;;
19905;SDS011;10115;50.906;4.438;2024-02-04T04:06:15;40.13;;;26.57;;
19905;SDS011;10115;50.906;4.438;2024-02-04T04:08:41;27.80;;;25.20;;
19905;SDS011;10115;50.906;4.438;2024-02-04T04:11:08;27.57;;;25.83;;
19905;SDS011;10115;50.906;4.438;2024-02-04T04:13:36;29.00;;;27.27;;
19905;SDS011;10115;50.906;4.438;2024-02-04T04:16:02;26.73;;;25.27;;
19905;SDS011;10115;50.906;4.438;2024-02-04T04:18:29;25.83;;;24.53;;
19905;SDS011;10115;50.906;4.438;2024-02-04T04:20:55;26.87;;;25.57;;
19905;SDS011;10115;50.906;4.438;2024-02-04T04:23:21;23.67;;;21.47;;
19905;SDS011;10115;50.906;4.438;2024-02-04T04:25:46;19.13;;;17.40;;
19905;SDS011;10115;50.906;4.438;2024-02-04T04:28:12;21.20;;;19.03;;
19905;SDS011;10115;50.906;4.438;2024-02-04T04:30:37;17.87;;;16.90;;
19905;SDS011;10115;50.906;4.438;2024-02-04T04:33:03;21.03;;;20.00;;
19905;SDS011;10115;50.906;4.438;2024-02-04T04:35:29;27.83;;;25.83;;
19905;SDS011;10115;50.906;4.438;2024-02-04T04:37:54;26.13;;;24.30;;
19905;SDS011;10115;50.906;4.438;2024-02-04T04:40:20;26.90;;;25.33;;
19905;SDS011;10115;50.906;4.438;2024-02-04T04:42:46;27.93;;;26.00;;
19905;SDS011;10115;50.906;4.438;2024-02-04T04:45:11;27.10;;;25.67;;
19905;SDS011;10115;50.906;4.438;2024-02-04T04:47:37;20.87;;;18.87;;
19905;SDS011;10115;50.906;4.438;2024-02-04T04:50:04;20.43;;;19.23;;
19905;SDS011;10115;50.906;4.438;2024-02-04T04:52:30;19.00;;;18.10;;
19905;SDS011;10115;50.906;4.438;2024-02-04T04:54:56;25.40;;;23.57;;
19905;SDS011;10115;50.906;4.438;2024-02-04T04:57:22;26.37;;;25.03;;
19905;SDS011;10115;50.906;4.438;2024-02-04T04:59:48;26.37;;;25.07;;
19905;SDS011;10115;50.906;4.438;2024-02-04T05:02:14;20.10;;;18.73;;
19905;SDS011;10115;50.906;4.438;2024-02-04T05:04:42;19.10;;;18.10;;
19905;SDS011;10115;50.906;4.438;2024-02-04T05:07:09;21.37;;;19.40;;
19905;SDS011;10115;50.906;4.438;2024-02-04T05:09:35;18.37;;;17.47;;
19905;SDS011;10115;50.906;4.438;2024-02-04T05:12:02;18.03;;;16.97;;
19905;SDS011;10115;50.906;4.438;2024-02-04T05:14:28;19.17;;;18.07;;
19905;SDS011;10115;50.906;4.438;2024-02-04T05:16:53;18.97;;;17.87;;
19905;SDS011;10115;50.906;4.438;2024-02-04T05:19:19;26.13;;;24.83;;
19905;SDS011;10115;50.906;4.438;2024-02-04T05:21:44;18.23;;;16.60;;
19905;SDS011;10115;50.906;4.438;2024-02-04T05:24:10;24.90;;;23.60;;
19905;SDS011;10115;50.906;4.438;2024-02-04T05:26:36;29.23;;;26.87;;
19905;SDS011;10115;50.906;4.438;2024-02-04T05:29:01;27.77;;;25.90;;
19905;SDS011;10115;50.906;4.438;2024-02-04T05:31:28;25.83;;;23.90;;
19905;SDS011;10115;50.906;4.438;2024-02-04T05:33:55;21.93;;;20.73;;
19905;SDS011;10115;50.906;4.438;2024-02-04T05:36:21;16.77;;;15.83;;
19905;SDS011;10115;50.906;4.438;2024-02-04T05:38:47;19.23;;;18.13;;
19905;SDS011;10115;50.906;4.438;2024-02-04T05:41:12;19.20;;;18.30;;
19905;SDS011;10115;50.906;4.438;2024-02-04T05:43:38;24.87;;;23.63;;
19905;SDS011;10115;50.906;4.438;2024-02-04T05:46:04;27.27;;;25.87;;
19905;SDS011;10115;50.906;4.438;2024-02-04T05:48:30;24.10;;;22.97;;
19905;SDS011;10115;50.906;4.438;2024-02-04T05:50:56;21.77;;;20.67;;
19905;SDS011;10115;50.906;4.438;2024-02-04T05:53:21;28.80;;;27.20;;
19905;SDS011;10115;50.906;4.438;2024-02-04T05:55:47;23.93;;;22.23;;
19905;SDS011;10115;50.906;4.438;2024-02-04T05:58:13;27.50;;;25.77;;
19905;SDS011;10115;50.906;4.438;2024-02-04T06:00:39;30.00;;;23.90;;
19905;SDS011;10115;50.906;4.438;2024-02-04T06:03:05;25.57;;;23.80;;
19905;SDS011;10115;50.906;4.438;2024-02-04T06:05:31;26.10;;;24.23;;
19905;SDS011;10115;50.906;4.438;2024-02-04T06:07:56;25.93;;;24.47;;
19905;SDS011;10115;50.906;4.438;2024-02-04T06:10:22;26.40;;;24.63;;
19905;SDS011;10115;50.906;4.438;2024-02-04T06:12:48;25.80;;;23.97;;
19905;SDS011;10115;50.906;4.438;2024-02-04T06:15:14;22.93;;;21.50;;
19905;SDS011;10115;50.906;4.438;2024-02-04T06:17:40;29.23;;;26.80;;
19905;SDS011;10115;50.906;4.438;2024-02-04T06:20:06;23.67;;;22.47;;
19905;SDS011;10115;50.906;4.438;2024-02-04T06:22:34;25.03;;;23.83;;
19905;SDS011;10115;50.906;4.438;2024-02-04T06:25:00;37.43;;;26.67;;
19905;SDS011;10115;50.906;4.438;2024-02-04T06:27:26;25.63;;;19.80;;
19905;SDS011;10115;50.906;4.438;2024-02-04T06:29:52;24.50;;;22.83;;
19905;SDS011;10115;50.906;4.438;2024-02-04T06:32:18;22.73;;;21.43;;
19905;SDS011;10115;50.906;4.438;2024-02-04T06:34:45;36.27;;;20.07;;
19905;SDS011;10115;50.906;4.438;2024-02-04T06:37:11;23.90;;;21.83;;
19905;SDS011;10115;50.906;4.438;2024-02-04T06:39:37;23.93;;;22.23;;
19905;SDS011;10115;50.906;4.438;2024-02-04T06:42:03;26.27;;;24.47;;
19905;SDS011;10115;50.906;4.438;2024-02-04T06:44:29;28.60;;;26.87;;
19905;SDS011;10115;50.906;4.438;2024-02-04T06:46:54;27.63;;;25.50;;
19905;SDS011;10115;50.906;4.438;2024-02-04T06:49:20;27.27;;;25.60;;
19905;SDS011;10115;50.906;4.438;2024-02-04T06:51:46;26.07;;;23.90;;
19905;SDS011;10115;50.906;4.438;2024-02-04T06:54:12;24.53;;;22.33;;
19905;SDS011;10115;50.906;4.438;2024-02-04T06:56:38;16.90;;;15.90;;
19905;SDS011;10115;50.906;4.438;2024-02-04T06:59:04;17.20;;;16.20;;
19905;SDS011;10115;50.906;4.438;2024-02-04T07:01:30;20.13;;;18.57;;
19905;SDS011;10115;50.906;4.438;2024-02-04T07:03:56;20.20;;;19.00;;
19905;SDS011;10115;50.906;4.438;2024-02-04T07:06:22;19.30;;;17.20;;
19905;SDS011;10115;50.906;4.438;2024-02-04T07:08:47;18.47;;;17.37;;
19905;SDS011;10115;50.906;4.438;2024-02-04T07:11:13;22.70;;;20.53;;
19905;SDS011;10115;50.906;4.438;2024-02-04T07:13:39;19.53;;;18.23;;
19905;SDS011;10115;50.906;4.438;2024-02-04T07:16:04;21.07;;;19.77;;
19905;SDS011;10115;50.906;4.438;2024-02-04T07:18:30;24.30;;;23.10;;
19905;SDS011;10115;50.906;4.438;2024-02-04T07:20:56;18.43;;;17.43;;
19905;SDS011;10115;50.906;4.438;2024-02-04T07:23:22;18.13;;;17.13;;
19905;SDS011;10115;50.906;4.438;2024-02-04T07:25:47;17.07;;;16.20;;
19905;SDS011;10115;50.906;4.438;2024-02-04T07:28:13;18.17;;;17.20;;
19905;SDS011;10115;50.906;4.438;2024-02-04T07:30:39;18.17;;;16.50;;
19905;SDS011;10115;50.906;4.438;2024-02-04T07:33:04;19.67;;;18.67;;
19905;SDS011;10115;50.906;4.438;2024-02-04T07:35:30;17.90;;;16.87;;
19905;SDS011;10115;50.906;4.438;2024-02-04T07:37:56;21.63;;;19.80;;
19905;SDS011;10115;50.906;4.438;2024-02-04T07:40:22;18.73;;;17.30;;
19905;SDS011;10115;50.906;4.438;2024-02-04T07:42:48;20.30;;;16.30;;
19905;SDS011;10115;50.906;4.438;2024-02-04T07:45:13;18.43;;;17.50;;
19905;SDS011;10115;50.906;4.438;2024-02-04T07:47:39;19.13;;;17.97;;
19905;SDS011;10115;50.906;4.438;2024-02-04T07:50:05;19.43;;;18.43;;
19905;SDS011;10115;50.906;4.438;2024-02-04T07:52:31;26.43;;;24.53;;
19905;SDS011;10115;50.906;4.438;2024-02-04T07:54:57;31.73;;;29.63;;
19905;SDS011;10115;50.906;4.438;2024-02-04T07:57:22;25.13;;;23.53;;
19905;SDS011;10115;50.906;4.438;2024-02-04T07:59:48;31.67;;;28.63;;
19905;SDS011;10115;50.906;4.438;2024-02-04T08:02:13;26.77;;;25.47;;
19905;SDS011;10115;50.906;4.438;2024-02-04T08:04:42;29.80;;;26.70;;
19905;SDS011;10115;50.906;4.438;2024-02-04T08:07:08;29.17;;;26.83;;
19905;SDS011;10115;50.906;4.438;2024-02-04T08:09:33;24.87;;;23.67;;
19905;SDS011;10115;50.906;4.438;2024-02-04T08:11:59;25.97;;;24.07;;
19905;SDS011;10115;50.906;4.438;2024-02-04T08:14:25;27.60;;;25.97;;
19905;SDS011;10115;50.906;4.438;2024-02-04T08:16:50;25.53;;;23.70;;
19905;SDS011;10115;50.906;4.438;2024-02-04T08:19:16;26.73;;;24.57;;
19905;SDS011;10115;50.906;4.438;2024-02-04T08:21:41;22.73;;;21.47;;
19905;SDS011;10115;50.906;4.438;2024-02-04T08:24:07;22.77;;;21.37;;
19905;SDS011;10115;50.906;4.438;2024-02-04T08:26:34;24.97;;;23.20;;
19905;SDS011;10115;50.906;4.438;2024-02-04T08:29:00;24.40;;;23.00;;
19905;SDS011;10115;50.906;4.438;2024-02-04T08:31:25;23.70;;;22.50;;
19905;SDS011;10115;50.906;4.438;2024-02-04T08:33:51;24.17;;;22.87;;
19905;SDS011;10115;50.906;4.438;2024-02-04T08:36:18;20.33;;;18.80;;
19905;SDS011;10115;50.906;4.438;2024-02-04T08:38:43;19.77;;;18.67;;
19905;SDS011;10115;50.906;4.438;2024-02-04T08:41:10;17.63;;;16.73;;
19905;SDS011;10115;50.906;4.438;2024-02-04T08:43:36;18.23;;;16.87;;
19905;SDS011;10115;50.906;4.438;2024-02-04T08:46:02;23.73;;;21.37;;
19905;SDS011;10115;50.906;4.438;2024-02-04T08:48:28;21.17;;;19.83;;
19905;SDS011;10115;50.906;4.438;2024-02-04T08:50:54;19.80;;;18.53;;
19905;SDS011;10115;50.906;4.438;2024-02-04T08:53:20;21.53;;;20.33;;
19905;SDS011;10115;50.906;4.438;2024-02-04T08:55:46;25.43;;;24.03;;
19905;SDS011;10115;50.906;4.438;2024-02-04T08:58:12;19.87;;;18.77;;
19905;SDS011;10115;50.906;4.438;2024-02-04T09:00:38;25.10;;;23.17;;
19905;SDS011;10115;50.906;4.438;2024-02-04T09:03:03;19.20;;;18.00;;
19905;SDS011;10115;50.906;4.438;2024-02-04T09:05:29;16.87;;;15.97;;
19905;SDS011;10115;50.906;4.438;2024-02-04T09:07:55;17.13;;;15.93;;
19905;SDS011;10115;50.906;4.438;2024-02-04T09:10:21;24.47;;;23.10;;
19905;SDS011;10115;50.906;4.438;2024-02-04T09:12:47;22.73;;;21.43;;
19905;SDS011;10115;50.906;4.438;2024-02-04T09:15:12;23.03;;;21.87;;
19905;SDS011;10115;50.906;4.438;2024-02-04T09:17:38;17.03;;;15.97;;
19905;SDS011;10115;50.906;4.438;2024-02-04T09:20:04;15.93;;;15.03;;
19905;SDS011;10115;50.906;4.438;2024-02-04T09:22:30;15.43;;;14.63;;
19905;SDS011;10115;50.906;4.438;2024-02-04T09:24:56;34.03;;;16.03;;
19905;SDS011;10115;50.906;4.438;2024-02-04T09:27:22;22.00;;;20.77;;
19905;SDS011;10115;50.906;4.438;2024-02-04T09:29:47;17.90;;;16.87;;
19905;SDS011;10115;50.906;4.438;2024-02-04T09:32:13;16.43;;;15.63;;
19905;SDS011;10115;50.906;4.438;2024-02-04T09:34:39;15.10;;;14.30;;
19905;SDS011;10115;50.906;4.438;2024-02-04T09:37:06;14.10;;;13.50;;
19905;SDS011;10115;50.906;4.438;2024-02-04T09:39:32;16.97;;;16.17;;
19905;SDS011;10115;50.906;4.438;2024-02-04T09:41:57;20.73;;;18.93;;
19905;SDS011;10115;50.906;4.438;2024-02-04T09:44:24;26.23;;;24.67;;
19905;SDS011;10115;50.906;4.438;2024-02-04T09:46:50;24.30;;;23.20;;
19905;SDS011;10115;50.906;4.438;2024-02-04T09:49:17;14.43;;;13.77;;
19905;SDS011;10115;50.906;4.438;2024-02-04T09:51:43;15.67;;;14.87;;
19905;SDS011;10115;50.906;4.438;2024-02-04T09:54:10;15.23;;;14.50;;
19905;SDS011;10115;50.906;4.438;2024-02-04T09:56:37;14.53;;;13.63;;
19905;SDS011;10115;50.906;4.438;2024-02-04T09:59:03;14.70;;;13.97;;
19905;SDS011;10115;50.906;4.438;2024-02-04T10:01:30;17.83;;;16.77;;
19905;SDS011;10115;50.906;4.438;2024-02-04T10:03:57;16.43;;;14.90;;
19905;SDS011;10115;50.906;4.438;2024-02-04T10:06:23;15.27;;;14.57;;
19905;SDS011;10115;50.906;4.438;2024-02-04T10:08:49;19.00;;;17.10;;
19905;SDS011;10115;50.906;4.438;2024-02-04T10:11:15;15.70;;;14.50;;
19905;SDS011;10115;50.906;4.438;2024-02-04T10:13:45;14.87;;;14.17;;
19905;SDS011;10115;50.906;4.438;2024-02-04T10:16:12;18.83;;;17.60;;
19905;SDS011;10115;50.906;4.438;2024-02-04T10:18:45;17.10;;;16.30;;
19905;SDS011;10115;50.906;4.438;2024-02-04T10:21:19;14.87;;;13.63;;
19905;SDS011;10115;50.906;4.438;2024-02-04T10:23:49;14.10;;;13.03;;
19905;SDS011;10115;50.906;4.438;2024-02-04T10:26:17;14.00;;;13.30;;
19905;SDS011;10115;50.906;4.438;2024-02-04T10:28:45;13.17;;;12.57;;
19905;SDS011;10115;50.906;4.438;2024-02-04T10:31:12;13.60;;;13.00;;
19905;SDS011;10115;50.906;4.438;2024-02-04T10:33:38;16.70;;;15.70;;
19905;SDS011;10115;50.906;4.438;2024-02-04T10:36:04;14.83;;;13.40;;
19905;SDS011;10115;50.906;4.438;2024-02-04T10:38:31;14.37;;;12.70;;
19905;SDS011;10115;50.906;4.438;2024-02-04T10:40:59;14.57;;;13.47;;
19905;SDS011;10115;50.906;4.438;2024-02-04T10:43:30;13.77;;;13.07;;
19905;SDS011;10115;50.906;4.438;2024-02-04T10:45:57;13.90;;;13.07;;
19905;SDS011;10115;50.906;4.438;2024-02-04T10:48:30;13.37;;;12.67;;
19905;SDS011;10115;50.906;4.438;2024-02-04T10:51:06;14.70;;;13.67;;
19905;SDS011;10115;50.906;4.438;2024-02-04T10:53:37;12.90;;;12.30;;
19905;SDS011;10115;50.906;4.438;2024-02-04T10:56:05;12.57;;;12.00;;
19905;SDS011;10115;50.906;4.438;2024-02-04T10:58:33;13.80;;;13.10;;
19905;SDS011;10115;50.906;4.438;2024-02-04T11:01:00;13.23;;;12.63;;
19905;SDS011;10115;50.906;4.438;2024-02-04T11:03:26;13.07;;;12.40;;
19905;SDS011;10115;50.906;4.438;2024-02-04T11:05:53;13.33;;;12.73;;
19905;SDS011;10115;50.906;4.438;2024-02-04T11:08:19;14.90;;;13.57;;
19905;SDS011;10115;50.906;4.438;2024-02-04T11:10:46;14.07;;;13.37;;
19905;SDS011;10115;50.906;4.438;2024-02-04T11:13:12;13.47;;;12.27;;
19905;SDS011;10115;50.906;4.438;2024-02-04T11:15:38;13.27;;;12.47;;
19905;SDS011;10115;50.906;4.438;2024-02-04T11:23:55;14.70;;;14.00;;
19905;SDS011;10115;50.906;4.438;2024-02-04T11:26:40;14.60;;;13.90;;
19905;SDS011;10115;50.906;4.438;2024-02-04T11:29:07;13.77;;;13.17;;
19905;SDS011;10115;50.906;4.438;2024-02-04T11:31:34;15.00;;;14.30;;
19905;SDS011;10115;50.906;4.438;2024-02-04T11:34:07;13.50;;;12.90;;
19905;SDS011;10115;50.906;4.438;2024-02-04T11:36:37;16.30;;;12.10;;
19905;SDS011;10115;50.906;4.438;2024-02-04T11:39:11;14.07;;;13.33;;
19905;SDS011;10115;50.906;4.438;2024-02-04T11:41:49;11.83;;;11.33;;
19905;SDS011;10115;50.906;4.438;2024-02-04T11:44:24;14.37;;;13.03;;
19905;SDS011;10115;50.906;4.438;2024-02-04T11:46:51;12.37;;;11.57;;
19905;SDS011;10115;50.906;4.438;2024-02-04T11:49:17;11.33;;;10.83;;
19905;SDS011;10115;50.906;4.438;2024-02-04T11:51:45;10.97;;;10.47;;
19905;SDS011;10115;50.906;4.438;2024-02-04T11:54:13;10.07;;;9.67;;
19905;SDS011;10115;50.906;4.438;2024-02-04T11:56:40;11.07;;;10.23;;
19905;SDS011;10115;50.906;4.438;2024-02-04T11:59:07;10.77;;;10.17;;
19905;SDS011;10115;50.906;4.438;2024-02-04T12:01:33;11.40;;;10.60;;
19905;SDS011;10115;50.906;4.438;2024-02-04T12:04:12;11.07;;;10.47;;
19905;SDS011;10115;50.906;4.438;2024-02-04T12:06:41;11.17;;;10.67;;
19905;SDS011;10115;50.906;4.438;2024-02-04T12:09:08;11.60;;;10.97;;
19905;SDS011;10115;50.906;4.438;2024-02-04T12:11:38;11.77;;;11.07;;
19905;SDS011;10115;50.906;4.438;2024-02-04T12:14:04;9.73;;;9.33;;
19905;SDS011;10115;50.906;4.438;2024-02-04T12:16:32;11.53;;;10.77;;
19905;SDS011;10115;50.906;4.438;2024-02-04T12:19:00;11.80;;;11.20;;
19905;SDS011;10115;50.906;4.438;2024-02-04T12:21:26;10.73;;;10.23;;
19905;SDS011;10115;50.906;4.438;2024-02-04T12:23:51;10.77;;;10.27;;
19905;SDS011;10115;50.906;4.438;2024-02-04T12:26:17;10.63;;;10.03;;
19905;SDS011;10115;50.906;4.438;2024-02-04T12:28:43;10.10;;;9.70;;
19905;SDS011;10115;50.906;4.438;2024-02-04T12:31:19;10.53;;;10.03;;
19905;SDS011;10115;50.906;4.438;2024-02-04T12:33:58;9.87;;;9.47;;
19905;SDS011;10115;50.906;4.438;2024-02-04T12:36:29;11.03;;;10.40;;
19905;SDS011;10115;50.906;4.438;2024-02-04T12:39:00;12.33;;;11.43;;
19905;SDS011;10115;50.906;4.438;2024-02-04T12:41:27;11.33;;;10.17;;
19905;SDS011;10115;50.906;4.438;2024-02-04T12:43:56;11.20;;;10.17;;
19905;SDS011;10115;50.906;4.438;2024-02-04T12:46:27;11.70;;;11.20;;
19905;SDS011;10115;50.906;4.438;2024-02-04T12:48:54;12.93;;;12.33;;
19905;SDS011;10115;50.906;4.438;2024-02-04T12:51:26;12.07;;;11.57;;
19905;SDS011;10115;50.906;4.438;2024-02-04T12:54:07;10.87;;;10.37;;
19905;SDS011;10115;50.906;4.438;2024-02-04T12:56:47;10.23;;;9.53;;
19905;SDS011;10115;50.906;4.438;2024-02-04T12:59:32;10.67;;;10.17;;
19905;SDS011;10115;50.906;4.438;2024-02-04T13:02:02;11.37;;;10.60;;
19905;SDS011;10115;50.906;4.438;2024-02-04T13:04:39;10.43;;;10.03;;
19905;SDS011;10115;50.906;4.438;2024-02-04T13:07:10;10.80;;;10.30;;
19905;SDS011;10115;50.906;4.438;2024-02-04T13:09:42;10.30;;;9.80;;
19905;SDS011;10115;50.906;4.438;2024-02-04T13:12:09;10.67;;;10.07;;
19905;SDS011;10115;50.906;4.438;2024-02-04T13:14:35;10.13;;;9.73;;
19905;SDS011;10115;50.906;4.438;2024-02-04T13:17:02;10.27;;;9.83;;
19905;SDS011;10115;50.906;4.438;2024-02-04T13:19:36;10.73;;;10.17;;
19905;SDS011;10115;50.906;4.438;2024-02-04T13:22:02;10.63;;;10.13;;
19905;SDS011;10115;50.906;4.438;2024-02-04T13:24:29;10.80;;;10.30;;
19905;SDS011;10115;50.906;4.438;2024-02-04T13:26:56;10.37;;;9.87;;
19905;SDS011;10115;50.906;4.438;2024-02-04T13:29:23;11.27;;;10.33;;
19905;SDS011;10115;50.906;4.438;2024-02-04T13:31:49;11.27;;;10.30;;
19905;SDS011;10115;50.906;4.438;2024-02-04T13:34:15;10.70;;;10.10;;
19905;SDS011;10115;50.906;4.438;2024-02-04T13:36:41;10.20;;;9.70;;
19905;SDS011;10115;50.906;4.438;2024-02-04T13:39:07;10.07;;;9.47;;
19905;SDS011;10115;50.906;4.438;2024-02-04T13:41:33;11.50;;;10.93;;
19905;SDS011;10115;50.906;4.438;2024-02-04T13:43:59;11.97;;;11.47;;
19905;SDS011;10115;50.906;4.438;2024-02-04T13:46:29;11.17;;;10.67;;
19905;SDS011;10115;50.906;4.438;2024-02-04T13:48:54;11.10;;;10.63;;
19905;SDS011;10115;50.906;4.438;2024-02-04T13:51:20;11.63;;;10.77;;
19905;SDS011;10115;50.906;4.438;2024-02-04T13:53:46;10.07;;;9.67;;
19905;SDS011;10115;50.906;4.438;2024-02-04T13:56:11;11.77;;;11.17;;
19905;SDS011;10115;50.906;4.438;2024-02-04T13:58:37;10.90;;;10.40;;
19905;SDS011;10115;50.906;4.438;2024-02-04T14:01:03;11.90;;;11.07;;
19905;SDS011;10115;50.906;4.438;2024-02-04T14:03:28;9.83;;;9.43;;
19905;SDS011;10115;50.906;4.438;2024-02-04T14:05:54;10.17;;;9.67;;
19905;SDS011;10115;50.906;4.438;2024-02-04T14:08:20;12.00;;;11.27;;
19905;SDS011;10115;50.906;4.438;2024-02-04T14:10:46;11.30;;;10.30;;
19905;SDS011;10115;50.906;4.438;2024-02-04T14:13:12;10.93;;;10.43;;
19905;SDS011;10115;50.906;4.438;2024-02-04T14:15:38;11.23;;;10.63;;
19905;SDS011;10115;50.906;4.438;2024-02-04T14:18:04;10.73;;;10.03;;
19905;SDS011;10115;50.906;4.438;2024-02-04T14:20:30;11.17;;;10.53;;
19905;SDS011;10115;50.906;4.438;2024-02-04T14:22:56;11.07;;;10.20;;
19905;SDS011;10115;50.906;4.438;2024-02-04T14:25:22;11.27;;;10.53;;
19905;SDS011;10115;50.906;4.438;2024-02-04T14:27:49;9.93;;;9.43;;
19905;SDS011;10115;50.906;4.438;2024-02-04T14:30:15;11.00;;;10.30;;